createdAt,value
2022-09-15T00:01:20.203Z,21.50
2022-09-15T00:03:46.855Z,21.12
2022-09-15T00:06:18.643Z,20.68
2022-09-15T00:08:45.556Z,20.00
2022-09-15T00:11:13.160Z,19.93
2022-09-15T00:13:39.775Z,19.60
2022-09-15T00:16:06.477Z,19.97
2022-09-15T00:18:33.373Z,20.21
2022-09-15T00:21:00.757Z,20.22
2022-09-15T00:26:30.965Z,20.99
2022-09-15T00:28:59.073Z,21.32
2022-09-15T00:31:25.804Z,21.34
2022-09-15T00:33:52.729Z,21.56
2022-09-15T00:36:20.080Z,21.98
2022-09-15T00:38:47.499Z,22.12
2022-09-15T00:41:14.162Z,21.59
2022-09-15T00:43:40.991Z,21.90
2022-09-15T00:46:10.603Z,22.22
2022-09-15T00:48:37.495Z,22.34
2022-09-15T00:51:04.395Z,22.18
2022-09-15T00:53:32.791Z,22.23
2022-09-15T00:55:59.812Z,22.26
2022-09-15T00:58:26.686Z,22.16
2022-09-15T01:00:53.257Z,22.00
2022-09-15T01:03:20.146Z,22.17
2022-09-15T01:05:47.070Z,21.95
2022-09-15T01:08:16.228Z,21.99
2022-09-15T01:10:42.948Z,22.00
2022-09-15T01:13:09.542Z,22.07
2022-09-15T01:15:37.070Z,21.68
2022-09-15T01:18:03.647Z,21.63
2022-09-15T01:20:30.184Z,21.24
2022-09-15T01:26:12.154Z,21.34
2022-09-15T01:28:38.961Z,21.22
2022-09-15T01:31:05.580Z,21.16
2022-09-15T01:33:33.179Z,21.18
2022-09-15T01:36:01.706Z,21.40
2022-09-15T01:38:28.491Z,21.19
2022-09-15T01:40:55.196Z,21.51
2022-09-15T01:43:21.921Z,21.76
2022-09-15T01:45:49.030Z,21.69
2022-09-15T01:48:17.612Z,21.33
2022-09-15T01:50:44.522Z,21.53
2022-09-15T01:53:11.425Z,21.28
2022-09-15T01:55:38.984Z,21.44
2022-09-15T01:58:06.190Z,21.75
2022-09-15T02:00:32.825Z,21.77
2022-09-15T02:03:01.107Z,22.07
2022-09-15T02:05:30.856Z,21.92
2022-09-15T02:11:02.389Z,21.92
2022-09-15T02:13:29.166Z,21.94
2022-09-15T02:15:55.844Z,21.79
2022-09-15T02:18:22.542Z,21.87
2022-09-15T02:20:51.525Z,21.51
2022-09-15T02:23:18.863Z,21.49
2022-09-15T02:25:46.285Z,21.51
2022-09-15T02:28:13.184Z,21.59
2022-09-15T02:30:40.117Z,21.52
2022-09-15T02:33:06.713Z,21.40
2022-09-15T02:35:37.316Z,21.56
2022-09-15T02:38:06.183Z,21.13
2022-09-15T02:40:33.075Z,21.45
2022-09-15T02:42:59.982Z,21.54
2022-09-15T02:45:27.039Z,21.75
2022-09-15T02:50:22.362Z,21.82
2022-09-15T02:52:48.937Z,21.70
2022-09-15T02:55:15.720Z,21.77
2022-09-15T02:57:51.386Z,21.85
2022-09-15T03:00:20.251Z,21.85
2022-09-15T03:02:46.729Z,21.78
2022-09-15T03:05:14.137Z,21.69
2022-09-15T03:07:41.677Z,21.66
2022-09-15T03:10:12.013Z,21.70
2022-09-15T03:12:38.825Z,21.59
2022-09-15T03:15:05.973Z,21.61
2022-09-15T03:17:32.806Z,21.66
2022-09-15T03:19:59.435Z,21.66
2022-09-15T03:22:29.286Z,21.50
2022-09-15T03:24:57.191Z,21.52
2022-09-15T03:27:24.209Z,21.51
2022-09-15T03:29:51.614Z,21.41
2022-09-15T03:32:23.259Z,21.46
2022-09-15T03:34:49.974Z,21.42
2022-09-15T03:37:16.605Z,21.33
2022-09-15T03:39:45.697Z,21.33
2022-09-15T03:42:16.362Z,21.36
2022-09-15T03:44:42.977Z,21.40
2022-09-15T03:47:09.806Z,21.43
2022-09-15T03:49:39.666Z,21.50
2022-09-15T03:52:07.681Z,21.44
2022-09-15T03:54:34.754Z,21.53
2022-09-15T03:57:01.629Z,21.46
2022-09-15T03:59:28.244Z,21.44
2022-09-15T04:01:55.183Z,21.52
2022-09-15T04:04:22.713Z,21.47
2022-09-15T04:06:49.625Z,21.37
2022-09-15T04:09:20.439Z,21.24
2022-09-15T04:11:49.091Z,20.72
2022-09-15T04:17:00.476Z,20.49
2022-09-15T04:19:32.101Z,20.54
2022-09-15T04:22:00.212Z,20.17
2022-09-15T04:24:29.412Z,19.81
2022-09-15T04:26:57.167Z,19.75
2022-09-15T04:29:23.731Z,20.01
2022-09-15T04:31:51.291Z,20.45
2022-09-15T04:34:17.928Z,20.42
2022-09-15T04:36:44.792Z,20.41
2022-09-15T04:39:11.606Z,20.97
2022-09-15T04:41:39.297Z,21.16
2022-09-15T04:44:05.871Z,21.26
2022-09-15T04:46:32.645Z,21.24
2022-09-15T04:48:59.568Z,21.31
2022-09-15T04:51:26.623Z,21.21
2022-09-15T04:53:53.923Z,21.02
2022-09-15T04:56:21.323Z,21.13
2022-09-15T04:58:47.917Z,21.19
2022-09-15T05:01:15.280Z,21.18
2022-09-15T05:03:41.983Z,21.31
2022-09-15T05:06:09.022Z,21.12
2022-09-15T05:08:36.094Z,20.46
2022-09-15T05:11:03.949Z,20.79
2022-09-15T05:13:33.963Z,20.83
2022-09-15T05:16:14.491Z,20.85
2022-09-15T15:10:04.988Z,24.74
2022-09-15T15:12:32.626Z,23.65
2022-09-15T17:15:53.121Z,21.62
2022-09-15T17:18:19.554Z,21.21
2022-09-15T17:20:46.625Z,21.47
2022-09-15T17:23:13.438Z,21.35
2022-09-15T17:25:40.087Z,21.35
2022-09-15T17:28:17.839Z,21.68
2022-09-15T17:30:47.048Z,21.54
2022-09-15T17:33:18.856Z,21.21
2022-09-15T17:35:45.488Z,21.63
2022-09-15T17:38:12.894Z,21.44
2022-09-15T17:40:39.618Z,21.44
2022-09-15T17:43:06.185Z,21.48
